createdAt,value
2018-06-10T00:01:16.157Z,99.90
2018-06-10T00:03:44.569Z,99.90
2018-06-10T00:06:13.017Z,99.90
2018-06-10T00:08:41.429Z,99.90
2018-06-10T00:11:09.870Z,99.90
2018-06-10T00:13:38.291Z,99.90
2018-06-10T00:16:06.724Z,99.90
2018-06-10T00:18:35.150Z,99.90
2018-06-10T00:21:03.605Z,99.90
2018-06-10T00:23:32.033Z,99.90
2018-06-10T00:26:00.464Z,99.90
2018-06-10T00:28:34.319Z,99.90
2018-06-10T00:31:02.761Z,99.90
2018-06-10T00:33:31.273Z,99.90
2018-06-10T00:35:59.736Z,99.90
2018-06-10T00:38:28.240Z,99.90
2018-06-10T00:40:56.662Z,99.90
2018-06-10T00:43:25.096Z,99.90
2018-06-10T00:45:53.511Z,99.90
2018-06-10T00:48:21.953Z,99.90
2018-06-10T00:50:50.387Z,99.90
2018-06-10T00:53:18.827Z,99.90
2018-06-10T00:55:47.268Z,99.90
2018-06-10T00:58:15.709Z,99.90
2018-06-10T01:00:44.175Z,99.90
2018-06-10T01:03:12.628Z,99.90
2018-06-10T01:05:41.052Z,99.90
2018-06-10T01:08:09.490Z,99.90
2018-06-10T01:10:37.955Z,99.90
2018-06-10T01:13:06.383Z,99.90
2018-06-10T01:15:34.801Z,99.90
2018-06-10T01:18:03.252Z,99.90
2018-06-10T01:20:31.676Z,99.90
2018-06-10T01:25:28.236Z,99.90
2018-06-10T01:27:56.666Z,99.90
2018-06-10T01:30:25.087Z,99.90
2018-06-10T01:32:53.509Z,99.90
2018-06-10T01:35:21.987Z,99.90
2018-06-10T01:37:50.395Z,99.90
2018-06-10T01:40:18.808Z,99.90
2018-06-10T01:42:47.228Z,99.90
2018-06-10T01:45:15.675Z,99.90
2018-06-10T01:47:44.094Z,99.90
2018-06-10T01:50:12.536Z,99.90
2018-06-10T01:52:40.954Z,99.90
2018-06-10T01:55:09.400Z,99.90
2018-06-10T01:57:37.820Z,99.90
2018-06-10T02:00:06.335Z,99.90
2018-06-10T02:02:34.761Z,99.90
2018-06-10T02:07:31.364Z,99.90
2018-06-10T02:09:59.860Z,99.90
2018-06-10T02:12:28.288Z,99.90
2018-06-10T02:14:56.744Z,99.90
2018-06-10T02:17:25.200Z,99.90
2018-06-10T02:19:53.651Z,99.90
2018-06-10T02:22:22.082Z,99.90
2018-06-10T02:24:50.548Z,99.90
2018-06-10T02:27:18.980Z,99.90
2018-06-10T02:29:47.405Z,99.90
2018-06-10T02:32:15.852Z,99.90
2018-06-10T02:34:44.317Z,99.90
2018-06-10T02:37:12.774Z,99.90
2018-06-10T02:39:41.209Z,99.90
2018-06-10T02:42:09.664Z,99.90
2018-06-10T02:44:38.103Z,99.90
2018-06-10T02:47:06.610Z,99.90
2018-06-10T02:49:35.058Z,99.90
2018-06-10T02:52:03.537Z,99.90
2018-06-10T02:54:31.972Z,99.90
2018-06-10T02:57:00.423Z,99.90
2018-06-10T02:59:28.848Z,99.90
2018-06-10T03:01:57.300Z,99.90
2018-06-10T03:04:25.706Z,99.90
2018-06-10T03:06:54.145Z,99.90
2018-06-10T03:09:22.549Z,99.90
2018-06-10T03:11:50.992Z,99.90
2018-06-10T03:14:19.409Z,99.90
2018-06-10T03:16:47.871Z,99.90
2018-06-10T03:19:16.300Z,99.90
2018-06-10T03:21:44.715Z,99.90
2018-06-10T03:24:13.159Z,99.90
2018-06-10T03:26:41.592Z,99.90
2018-06-10T03:29:10.068Z,99.90
2018-06-10T03:31:38.480Z,99.90
2018-06-10T03:34:06.920Z,99.90
2018-06-10T03:36:35.344Z,99.90
2018-06-10T03:39:04.691Z,99.90
2018-06-10T03:44:01.296Z,99.90
2018-06-10T03:46:29.716Z,99.90
2018-06-10T03:48:58.154Z,99.90
2018-06-10T03:51:26.567Z,99.90
2018-06-10T03:53:54.996Z,99.90
2018-06-10T03:56:23.412Z,99.90
2018-06-10T03:58:51.835Z,99.90
2018-06-10T04:01:20.248Z,99.90
2018-06-10T04:03:48.679Z,99.90
2018-06-10T04:06:17.091Z,99.90
2018-06-10T04:11:13.641Z,99.90
2018-06-10T04:13:42.044Z,99.90
2018-06-10T04:16:10.491Z,99.90
2018-06-10T04:18:38.897Z,99.90
2018-06-10T04:21:07.343Z,99.90
2018-06-10T04:23:35.760Z,99.90
2018-06-10T04:26:04.213Z,99.90
2018-06-10T04:28:32.619Z,99.90
2018-06-10T04:31:01.045Z,99.90
2018-06-10T04:33:29.453Z,99.90
2018-06-10T04:35:57.889Z,99.90
2018-06-10T04:38:26.296Z,99.90
2018-06-10T04:40:54.725Z,99.90
2018-06-10T04:43:23.140Z,99.90
2018-06-10T04:45:51.573Z,99.90
2018-06-10T04:48:19.984Z,99.90
2018-06-10T04:50:48.412Z,99.90
2018-06-10T04:53:16.820Z,99.90
2018-06-10T04:55:45.253Z,99.90
2018-06-10T04:58:13.655Z,99.90
2018-06-10T05:00:42.089Z,99.90
2018-06-10T05:03:10.523Z,99.90
2018-06-10T05:05:38.988Z,99.90
2018-06-10T05:08:07.412Z,99.90
2018-06-10T05:10:35.816Z,99.90
2018-06-10T05:13:04.249Z,99.90
2018-06-10T05:15:32.655Z,99.90
2018-06-10T05:18:01.073Z,99.90
2018-06-10T05:20:29.481Z,99.90
2018-06-10T05:22:57.901Z,99.90
2018-06-10T05:25:26.322Z,99.90
2018-06-10T05:27:54.779Z,99.90
2018-06-10T05:30:23.176Z,99.90
2018-06-10T05:32:51.617Z,99.90
2018-06-10T05:35:20.021Z,99.90
2018-06-10T05:37:48.429Z,99.90
2018-06-10T05:40:16.857Z,99.90
2018-06-10T05:42:45.259Z,99.90
2018-06-10T05:45:13.710Z,99.90
2018-06-10T05:47:42.131Z,99.90
2018-06-10T05:50:10.568Z,99.90
2018-06-10T05:52:38.982Z,99.90
2018-06-10T05:55:07.440Z,99.90
2018-06-10T05:57:35.845Z,99.90
2018-06-10T06:00:04.693Z,99.90
2018-06-10T06:02:33.113Z,99.90
2018-06-10T06:05:01.544Z,99.90
2018-06-10T06:07:29.949Z,99.90
2018-06-10T06:09:58.373Z,99.90
2018-06-10T06:12:26.785Z,99.90
2018-06-10T06:14:55.219Z,99.90
2018-06-10T06:17:23.616Z,99.90
2018-06-10T06:19:52.052Z,99.90
2018-06-10T06:22:20.463Z,99.90
2018-06-10T06:24:48.888Z,99.90
2018-06-10T06:27:17.357Z,99.90
2018-06-10T06:29:45.775Z,99.90
2018-06-10T06:32:14.184Z,99.90
2018-06-10T06:34:43.456Z,99.90
2018-06-10T06:37:11.866Z,99.90
2018-06-10T06:39:40.300Z,99.90
2018-06-10T06:42:08.704Z,99.90
2018-06-10T06:44:37.116Z,99.90
2018-06-10T06:47:05.528Z,99.90
2018-06-10T06:49:33.976Z,99.90
2018-06-10T06:52:02.390Z,99.90
2018-06-10T06:54:30.796Z,99.90
2018-06-10T06:56:59.212Z,99.90
2018-06-10T06:59:27.612Z,99.90
2018-06-10T07:01:56.061Z,99.90
2018-06-10T07:04:24.464Z,99.90
2018-06-10T07:06:52.898Z,99.90
2018-06-10T07:09:21.304Z,99.90
2018-06-10T07:11:49.723Z,99.90
2018-06-10T07:14:18.132Z,99.90
2018-06-10T07:16:46.555Z,99.90
2018-06-10T07:19:14.976Z,99.90
2018-06-10T07:21:43.396Z,99.90
2018-06-10T07:24:11.795Z,99.90
2018-06-10T07:26:40.207Z,99.90
2018-06-10T07:29:08.607Z,99.90
2018-06-10T07:31:37.040Z,99.90
2018-06-10T07:34:05.456Z,99.90
2018-06-10T07:36:33.893Z,99.90
2018-06-10T07:39:02.308Z,99.90
2018-06-10T07:41:30.740Z,99.90
2018-06-10T07:43:59.148Z,99.90
2018-06-10T07:46:27.574Z,99.90
2018-06-10T07:48:55.969Z,99.90
2018-06-10T07:51:24.426Z,99.90
2018-06-10T07:53:52.825Z,99.90
2018-06-10T07:56:21.219Z,99.90
2018-06-10T07:58:49.639Z,99.90
2018-06-10T08:01:18.049Z,99.90
2018-06-10T08:03:46.472Z,99.90
2018-06-10T08:06:14.881Z,99.90
2018-06-10T08:08:43.308Z,99.90
2018-06-10T08:11:11.708Z,99.90
2018-06-10T08:13:40.131Z,99.90
2018-06-10T08:16:08.607Z,99.90
2018-06-10T08:18:37.038Z,99.90
2018-06-10T08:21:05.464Z,99.90
2018-06-10T08:23:33.891Z,99.90
2018-06-10T08:26:02.287Z,99.90
2018-06-10T08:28:30.716Z,99.90
2018-06-10T08:30:59.124Z,99.90
2018-06-10T08:33:27.544Z,99.90
2018-06-10T08:35:55.949Z,99.90
2018-06-10T08:38:24.373Z,99.90
2018-06-10T08:40:52.783Z,99.90
2018-06-10T08:43:21.204Z,99.90
2018-06-10T08:45:49.603Z,99.90
2018-06-10T08:48:18.011Z,99.90
2018-06-10T08:50:46.436Z,99.90
2018-06-10T08:53:14.857Z,99.90
2018-06-10T08:55:43.283Z,99.90
2018-06-10T08:58:11.679Z,99.90
2018-06-10T09:00:40.120Z,99.90
2018-06-10T09:03:08.538Z,99.90
2018-06-10T09:05:36.968Z,99.90
2018-06-10T09:08:05.397Z,99.90
2018-06-10T09:10:33.838Z,99.90
2018-06-10T09:13:02.381Z,99.90
2018-06-10T09:15:30.792Z,99.90
2018-06-10T09:17:59.196Z,99.90
2018-06-10T09:22:55.717Z,99.90
2018-06-10T09:25:24.116Z,99.90
2018-06-10T09:27:52.535Z,99.90
2018-06-10T09:30:20.927Z,99.90
2018-06-10T09:32:49.344Z,99.90
2018-06-10T09:35:17.740Z,99.90
2018-06-10T09:37:46.172Z,99.90
2018-06-10T09:40:14.575Z,99.90
2018-06-10T09:42:43.003Z,99.90
2018-06-10T09:45:11.432Z,99.90
2018-06-10T09:47:39.863Z,99.90
2018-06-10T09:50:08.276Z,99.90
2018-06-10T09:52:36.699Z,99.90
2018-06-10T09:55:05.152Z,99.90
2018-06-10T09:57:33.568Z,99.90
2018-06-10T10:00:01.993Z,99.90
2018-06-10T10:02:30.429Z,99.90
2018-06-10T10:04:58.828Z,99.90
2018-06-10T10:07:27.260Z,99.90
2018-06-10T10:09:55.664Z,99.90
2018-06-10T10:12:24.083Z,99.90
2018-06-10T10:14:52.492Z,99.90
2018-06-10T10:17:20.940Z,99.40
2018-06-10T10:19:49.335Z,99.70
2018-06-10T10:24:45.872Z,99.90
2018-06-10T10:27:14.289Z,99.90
2018-06-10T10:29:42.729Z,99.90
2018-06-10T10:32:11.136Z,99.50
2018-06-10T10:37:07.675Z,98.70
2018-06-10T10:39:36.096Z,93.10
2018-06-10T10:42:04.521Z,92.60
2018-06-10T10:44:32.944Z,86.50
2018-06-10T10:47:01.357Z,90.60
2018-06-10T10:49:29.779Z,90.80
2018-06-10T10:51:58.621Z,90.50
2018-06-10T10:54:27.035Z,90.00
2018-06-10T10:56:55.443Z,81.70
2018-06-10T10:59:23.872Z,82.80
2018-06-10T11:01:52.307Z,85.90
2018-06-10T11:04:20.741Z,80.90
2018-06-10T11:06:49.141Z,81.90
2018-06-10T11:09:17.578Z,78.80
2018-06-10T11:11:45.971Z,77.10
2018-06-10T11:14:14.380Z,77.50
2018-06-10T11:16:42.833Z,79.10
2018-06-10T11:19:11.244Z,78.30
2018-06-10T11:21:39.672Z,80.40
2018-06-10T11:26:36.197Z,86.60
2018-06-10T11:29:04.599Z,83.80
2018-06-10T11:31:33.051Z,80.90
2018-06-10T11:34:01.464Z,81.20
2018-06-10T11:36:29.880Z,79.30
2018-06-10T11:38:58.279Z,74.00
2018-06-10T11:41:26.711Z,75.40
2018-06-10T11:43:55.112Z,72.60
2018-06-10T11:46:23.538Z,74.20
2018-06-10T11:48:51.947Z,70.70
2018-06-10T11:51:20.380Z,71.60
2018-06-10T11:53:48.783Z,73.20
2018-06-10T11:56:17.201Z,72.70
2018-06-10T11:58:45.592Z,72.20
2018-06-10T12:01:14.027Z,69.80
2018-06-10T12:03:42.422Z,69.00
2018-06-10T12:06:10.844Z,72.20
2018-06-10T12:08:39.249Z,66.80
2018-06-10T12:11:07.683Z,66.00
2018-06-10T12:13:36.077Z,67.20
2018-06-10T12:16:04.531Z,64.90
2018-06-10T12:18:32.929Z,69.60
2018-06-10T12:21:01.334Z,68.90
2018-06-10T12:23:29.751Z,68.10
2018-06-10T12:25:58.157Z,68.10
2018-06-10T12:28:26.579Z,71.30
2018-06-10T12:30:54.980Z,68.80
2018-06-10T12:33:23.401Z,70.70
2018-06-10T12:35:51.818Z,69.30
2018-06-10T12:38:20.250Z,69.80
2018-06-10T12:40:48.664Z,71.50
2018-06-10T12:43:17.091Z,73.00
2018-06-10T12:45:45.492Z,68.40
2018-06-10T12:48:13.916Z,68.90
2018-06-10T12:50:42.312Z,69.50
2018-06-10T12:53:10.732Z,66.90
2018-06-10T12:55:39.140Z,69.00
2018-06-10T12:58:07.576Z,66.10
2018-06-10T13:00:36.024Z,66.40
2018-06-10T13:03:04.492Z,64.40
2018-06-10T13:08:07.542Z,67.90
2018-06-10T13:10:35.968Z,63.60
2018-06-10T13:13:04.389Z,65.70
2018-06-10T13:18:00.907Z,65.00
2018-06-10T13:20:29.404Z,66.90
2018-06-10T13:22:57.819Z,71.00
2018-06-10T13:25:26.244Z,69.30
2018-06-10T13:27:54.645Z,67.80
2018-06-10T13:30:23.067Z,68.10
2018-06-10T13:32:51.468Z,70.20
2018-06-10T13:35:19.900Z,70.20
2018-06-10T13:37:48.300Z,69.20
2018-06-10T13:40:16.725Z,68.00
2018-06-10T13:42:45.132Z,69.30
2018-06-10T13:45:13.568Z,70.30
2018-06-10T13:47:41.973Z,70.30
2018-06-10T13:50:10.404Z,67.70
2018-06-10T13:52:38.808Z,70.00
2018-06-10T13:55:07.276Z,72.50
2018-06-10T14:00:04.418Z,75.80
2018-06-10T14:02:32.839Z,77.50
2018-06-10T14:05:01.253Z,78.80
2018-06-10T14:07:29.696Z,79.10
2018-06-10T14:12:26.262Z,79.60
2018-06-10T14:14:54.671Z,79.10
2018-06-10T14:17:23.094Z,80.30
2018-06-10T14:19:51.508Z,77.10
2018-06-10T14:22:19.933Z,75.70
2018-06-10T14:24:51.362Z,74.50
2018-06-10T14:27:19.787Z,75.70
2018-06-10T14:29:48.191Z,75.30
2018-06-10T14:32:16.611Z,76.40
2018-06-10T14:34:45.051Z,74.50
2018-06-10T14:37:13.481Z,74.10
2018-06-10T14:39:41.881Z,72.40
2018-06-10T14:42:10.332Z,73.00
2018-06-10T14:44:38.737Z,75.70
2018-06-10T14:47:07.170Z,75.70
2018-06-10T14:49:35.614Z,79.10
2018-06-10T14:52:04.023Z,77.60
2018-06-10T14:54:32.422Z,79.40
2018-06-10T14:59:28.969Z,76.20
2018-06-10T15:01:57.393Z,74.70
2018-06-10T15:04:25.816Z,75.80
2018-06-10T15:06:54.225Z,75.50
2018-06-10T15:11:50.752Z,76.80
2018-06-10T15:14:19.189Z,79.20
2018-06-10T15:16:47.592Z,77.70
2018-06-10T15:19:16.025Z,76.60
2018-06-10T15:24:12.536Z,77.00
2018-06-10T15:26:40.953Z,77.70
2018-06-10T15:29:09.376Z,77.80
2018-06-10T15:31:37.784Z,78.60
2018-06-10T15:34:06.231Z,79.60
2018-06-10T15:36:34.632Z,78.30
2018-06-10T15:39:03.193Z,76.70
2018-06-10T15:41:31.601Z,76.90
2018-06-10T15:44:00.013Z,79.70
2018-06-10T15:46:28.486Z,78.50
2018-06-10T15:48:56.868Z,78.80
2018-06-10T15:51:25.303Z,76.70
2018-06-10T15:53:53.708Z,76.90
2018-06-10T15:56:22.138Z,78.00
2018-06-10T15:58:50.532Z,76.60
2018-06-10T16:03:47.101Z,77.60
2018-06-10T16:06:15.509Z,76.70
2018-06-10T16:08:43.915Z,78.20
2018-06-10T16:11:12.326Z,77.70
2018-06-10T16:13:40.731Z,79.20
2018-06-10T16:16:09.192Z,79.60
2018-06-10T16:18:37.584Z,78.00
2018-06-10T16:21:06.019Z,79.20
2018-06-10T16:23:34.428Z,79.90
2018-06-10T16:26:02.850Z,80.80
2018-06-10T16:28:31.256Z,81.40
2018-06-10T16:30:59.680Z,81.60
2018-06-10T16:33:28.084Z,82.70
2018-06-10T16:35:56.495Z,79.60
2018-06-10T16:38:24.894Z,79.20
2018-06-10T16:40:53.327Z,78.20
2018-06-10T16:43:21.731Z,77.90
2018-06-10T16:45:50.164Z,78.80
2018-06-10T16:48:18.563Z,78.90
2018-06-10T16:50:46.987Z,79.80
2018-06-10T16:53:15.393Z,80.70
2018-06-10T16:55:43.807Z,80.20
2018-06-10T16:58:18.845Z,81.10
2018-06-10T17:00:47.292Z,83.20
2018-06-10T17:03:15.696Z,85.10
2018-06-10T17:05:44.112Z,84.50
2018-06-10T17:08:12.545Z,84.90
2018-06-10T17:10:40.956Z,85.30
2018-06-10T17:13:09.832Z,86.10
2018-06-10T17:15:38.240Z,87.30
2018-06-10T17:18:06.676Z,87.30
2018-06-10T17:20:35.090Z,87.60
2018-06-10T17:23:03.509Z,89.30
2018-06-10T17:25:31.924Z,88.50
2018-06-10T17:28:00.345Z,88.40
2018-06-10T17:30:28.750Z,89.90
2018-06-10T17:32:57.180Z,90.40
2018-06-10T17:35:25.611Z,90.60
2018-06-10T17:37:54.036Z,90.30
2018-06-10T17:40:22.470Z,91.00
2018-06-10T17:42:50.903Z,91.30
2018-06-10T17:45:19.316Z,91.40
2018-06-10T17:47:47.736Z,91.90
2018-06-10T17:50:16.184Z,92.60
2018-06-10T17:52:44.597Z,92.60
2018-06-10T17:55:13.020Z,93.70
2018-06-10T17:57:41.432Z,94.60
2018-06-10T18:00:09.883Z,94.50
2018-06-10T18:02:38.296Z,94.10
2018-06-10T18:05:06.749Z,95.10
2018-06-10T18:07:35.161Z,97.30
2018-06-10T18:10:03.670Z,99.20
2018-06-10T18:12:32.072Z,99.40
2018-06-10T18:15:00.512Z,99.90
2018-06-10T18:17:28.940Z,99.90
2018-06-10T18:19:57.369Z,99.90
2018-06-10T18:22:25.780Z,99.90
2018-06-10T18:24:54.209Z,99.90
2018-06-10T18:27:22.629Z,99.90
2018-06-10T18:29:51.053Z,99.90
2018-06-10T18:32:19.469Z,99.90
2018-06-10T18:34:48.013Z,99.90
2018-06-10T18:37:16.429Z,99.90
2018-06-10T18:39:44.863Z,99.90
2018-06-10T18:42:13.280Z,99.90
2018-06-10T18:44:41.764Z,99.90
2018-06-10T18:47:10.212Z,99.90
2018-06-10T18:49:38.656Z,99.90
2018-06-10T18:52:07.071Z,99.90
2018-06-10T18:54:35.485Z,99.90
2018-06-10T18:57:03.918Z,99.90
2018-06-10T18:59:32.357Z,99.90
2018-06-10T19:02:00.823Z,99.90
2018-06-10T19:04:29.247Z,99.90
2018-06-10T19:06:57.676Z,99.90
2018-06-10T19:09:26.076Z,99.90
2018-06-10T19:11:54.497Z,99.90
2018-06-10T19:14:22.909Z,99.90
2018-06-10T19:16:51.340Z,99.90
2018-06-10T19:19:19.755Z,99.90
2018-06-10T19:21:48.191Z,99.90
2018-06-10T19:26:44.760Z,99.90
2018-06-10T19:29:13.175Z,99.90
2018-06-10T19:31:41.613Z,99.90
2018-06-10T19:34:10.012Z,99.90
2018-06-10T19:36:38.441Z,99.90
2018-06-10T19:39:08.045Z,99.90
2018-06-10T19:41:36.672Z,99.90
2018-06-10T19:44:05.085Z,99.90
2018-06-10T19:46:33.513Z,99.90
2018-06-10T19:49:01.929Z,99.90
2018-06-10T19:53:58.471Z,99.90
2018-06-10T19:56:26.877Z,99.90
2018-06-10T19:58:55.295Z,99.90
2018-06-10T20:01:23.727Z,99.90
2018-06-10T20:03:52.184Z,99.90
2018-06-10T20:06:20.592Z,99.90
2018-06-10T20:08:49.032Z,99.90
2018-06-10T20:11:17.445Z,99.90
2018-06-10T20:13:46.783Z,99.90
2018-06-10T20:16:15.206Z,99.90
2018-06-10T20:18:43.628Z,99.90
2018-06-10T20:21:12.035Z,99.90
2018-06-10T20:23:40.460Z,99.90
2018-06-10T20:26:08.867Z,99.90
2018-06-10T20:28:37.301Z,99.90
2018-06-10T20:31:05.923Z,99.90
2018-06-10T20:33:34.326Z,99.90
2018-06-10T20:36:02.801Z,99.90
2018-06-10T20:38:31.214Z,99.90
2018-06-10T20:40:59.647Z,99.90
2018-06-10T20:43:28.060Z,99.90
2018-06-10T20:45:56.493Z,99.90
2018-06-10T20:48:24.942Z,99.90
2018-06-10T20:50:53.361Z,99.90
2018-06-10T20:53:21.770Z,99.90
2018-06-10T20:55:50.195Z,99.90
2018-06-10T20:58:18.604Z,99.90
2018-06-10T21:00:47.043Z,99.90
2018-06-10T21:03:15.457Z,99.90
2018-06-10T21:05:43.877Z,99.90
2018-06-10T21:08:12.302Z,99.90
2018-06-10T21:10:40.728Z,99.90
2018-06-10T21:13:09.141Z,99.90
2018-06-10T21:15:37.572Z,99.90
2018-06-10T21:18:05.983Z,99.90
2018-06-10T21:23:02.544Z,99.90
2018-06-10T21:25:31.008Z,99.90
2018-06-10T21:27:59.432Z,99.90
2018-06-10T21:30:27.833Z,99.90
2018-06-10T21:32:56.274Z,99.90
2018-06-10T21:35:24.693Z,99.90
2018-06-10T21:37:53.123Z,99.90
2018-06-10T21:40:21.534Z,99.90
2018-06-10T21:45:18.054Z,99.90
2018-06-10T21:47:46.500Z,99.90
2018-06-10T21:50:14.912Z,99.90
2018-06-10T21:52:43.334Z,99.90
2018-06-10T21:55:11.755Z,99.90
2018-06-10T21:57:40.180Z,99.90
2018-06-10T22:00:14.323Z,99.90
2018-06-10T22:02:42.739Z,99.90
2018-06-10T22:05:11.156Z,99.90
2018-06-10T22:07:39.616Z,99.90
2018-06-10T22:10:08.020Z,99.90
2018-06-10T22:12:36.447Z,99.90
2018-06-10T22:15:04.908Z,99.90
2018-06-10T22:17:33.307Z,99.90
2018-06-10T22:20:01.725Z,99.90
2018-06-10T22:22:30.128Z,99.90
2018-06-10T22:24:58.555Z,99.90
2018-06-10T22:27:26.968Z,99.90
2018-06-10T22:29:55.395Z,99.90
2018-06-10T22:32:23.802Z,99.90
2018-06-10T22:34:52.229Z,99.90
2018-06-10T22:37:20.628Z,99.90
2018-06-10T22:39:49.044Z,99.90
2018-06-10T22:42:17.452Z,99.90
2018-06-10T22:44:45.876Z,99.90
2018-06-10T22:47:14.280Z,99.90
2018-06-10T22:52:10.808Z,99.90
2018-06-10T22:54:40.468Z,99.90
2018-06-10T22:57:09.092Z,99.90
2018-06-10T22:59:37.526Z,99.90
2018-06-10T23:02:06.987Z,99.90
2018-06-10T23:04:35.415Z,99.90
2018-06-10T23:07:03.878Z,99.90
2018-06-10T23:09:32.283Z,99.90
2018-06-10T23:12:00.696Z,99.90
2018-06-10T23:14:29.116Z,99.90
2018-06-10T23:16:57.580Z,99.90
2018-06-10T23:19:26.007Z,99.90
2018-06-10T23:21:54.449Z,99.90
2018-06-10T23:24:22.851Z,99.90
2018-06-10T23:26:51.280Z,99.90
2018-06-10T23:29:19.675Z,99.90
2018-06-10T23:31:48.104Z,99.90
2018-06-10T23:34:16.512Z,99.90
2018-06-10T23:36:44.962Z,99.90
2018-06-10T23:39:13.374Z,99.90
2018-06-10T23:41:41.804Z,99.90
2018-06-10T23:44:10.208Z,99.90
2018-06-10T23:46:38.653Z,99.90
2018-06-10T23:49:07.276Z,99.90
2018-06-10T23:51:35.703Z,99.90
2018-06-10T23:54:04.120Z,99.90
2018-06-10T23:56:32.535Z,99.90
2018-06-10T23:59:00.967Z,99.90
